sensor_id;sensor_type;location;lat;lon;timestamp;P1;durP1;ratioP1;P2;durP2;ratioP2
76631;SDS011;65526;48.578;-4.520;2023-07-20T00:00:00;4.22;;;1.52;;
76631;SDS011;65526;48.578;-4.520;2023-07-20T00:02:26;4.35;;;1.67;;
76631;SDS011;65526;48.578;-4.520;2023-07-20T00:04:52;5.57;;;2.20;;
76631;SDS011;65526;48.578;-4.520;2023-07-20T00:07:19;6.50;;;2.10;;
76631;SDS011;65526;48.578;-4.520;2023-07-20T00:09:45;4.60;;;2.00;;
76631;SDS011;65526;48.578;-4.520;2023-07-20T00:12:11;3.75;;;1.83;;
76631;SDS011;65526;48.578;-4.520;2023-07-20T00:14:38;2.25;;;1.90;;
76631;SDS011;65526;48.578;-4.520;2023-07-20T00:17:04;3.17;;;1.98;;
76631;SDS011;65526;48.578;-4.520;2023-07-20T00:19:31;4.82;;;2.40;;
76631;SDS011;65526;48.578;-4.520;2023-07-20T00:21:58;4.88;;;2.13;;
76631;SDS011;65526;48.578;-4.520;2023-07-20T00:24:25;7.72;;;3.00;;
76631;SDS011;65526;48.578;-4.520;2023-07-20T00:26:51;5.03;;;2.08;;
76631;SDS011;65526;48.578;-4.520;2023-07-20T00:29:17;5.82;;;2.30;;
76631;SDS011;65526;48.578;-4.520;2023-07-20T00:31:44;9.02;;;2.55;;
76631;SDS011;65526;48.578;-4.520;2023-07-20T00:34:10;4.57;;;2.95;;
76631;SDS011;65526;48.578;-4.520;2023-07-20T00:36:37;5.53;;;2.08;;
76631;SDS011;65526;48.578;-4.520;2023-07-20T00:39:03;3.90;;;2.05;;
76631;SDS011;65526;48.578;-4.520;2023-07-20T00:41:29;4.60;;;1.80;;
76631;SDS011;65526;48.578;-4.520;2023-07-20T00:43:57;2.80;;;1.70;;
76631;SDS011;65526;48.578;-4.520;2023-07-20T00:46:23;3.67;;;1.98;;
76631;SDS011;65526;48.578;-4.520;2023-07-20T00:48:51;2.20;;;1.80;;
76631;SDS011;65526;48.578;-4.520;2023-07-20T00:51:19;2.67;;;1.60;;
76631;SDS011;65526;48.578;-4.520;2023-07-20T00:53:47;3.70;;;2.00;;
76631;SDS011;65526;48.578;-4.520;2023-07-20T00:56:15;4.35;;;1.75;;
76631;SDS011;65526;48.578;-4.520;2023-07-20T00:58:41;4.85;;;1.67;;
76631;SDS011;65526;48.578;-4.520;2023-07-20T01:01:08;5.90;;;2.13;;
76631;SDS011;65526;48.578;-4.520;2023-07-20T01:03:34;4.63;;;2.40;;
76631;SDS011;65526;48.578;-4.520;2023-07-20T01:12:02;4.30;;;2.10;;
76631;SDS011;65526;48.578;-4.520;2023-07-20T01:14:09;8.55;;;1.92;;
76631;SDS011;65526;48.578;-4.520;2023-07-20T01:16:37;7.38;;;2.47;;
76631;SDS011;65526;48.578;-4.520;2023-07-20T01:19:04;6.60;;;2.80;;
76631;SDS011;65526;48.578;-4.520;2023-07-20T01:21:34;6.10;;;2.70;;
76631;SDS011;65526;48.578;-4.520;2023-07-20T01:30:12;4.75;;;2.05;;
76631;SDS011;65526;48.578;-4.520;2023-07-20T01:32:48;3.88;;;2.20;;
76631;SDS011;65526;48.578;-4.520;2023-07-20T01:35:16;4.88;;;2.60;;
76631;SDS011;65526;48.578;-4.520;2023-07-20T01:37:45;3.60;;;1.92;;
76631;SDS011;65526;48.578;-4.520;2023-07-20T01:40:13;5.45;;;3.28;;
76631;SDS011;65526;48.578;-4.520;2023-07-20T01:42:45;4.60;;;3.13;;
76631;SDS011;65526;48.578;-4.520;2023-07-20T01:45:12;4.28;;;2.45;;
76631;SDS011;65526;48.578;-4.520;2023-07-20T01:47:39;5.35;;;2.35;;
76631;SDS011;65526;48.578;-4.520;2023-07-20T01:50:06;5.70;;;2.65;;
76631;SDS011;65526;48.578;-4.520;2023-07-20T01:52:33;6.60;;;2.35;;
76631;SDS011;65526;48.578;-4.520;2023-07-20T01:54:59;5.65;;;2.20;;
76631;SDS011;65526;48.578;-4.520;2023-07-20T01:57:25;5.43;;;2.13;;
76631;SDS011;65526;48.578;-4.520;2023-07-20T01:59:52;3.05;;;2.10;;
76631;SDS011;65526;48.578;-4.520;2023-07-20T02:02:18;5.63;;;2.40;;
76631;SDS011;65526;48.578;-4.520;2023-07-20T02:04:46;3.78;;;2.03;;
76631;SDS011;65526;48.578;-4.520;2023-07-20T02:07:13;4.63;;;2.08;;
76631;SDS011;65526;48.578;-4.520;2023-07-20T02:09:40;5.25;;;2.30;;
76631;SDS011;65526;48.578;-4.520;2023-07-20T02:12:07;5.40;;;2.40;;
76631;SDS011;65526;48.578;-4.520;2023-07-20T02:14:34;4.38;;;2.00;;
76631;SDS011;65526;48.578;-4.520;2023-07-20T02:17:00;6.93;;;2.22;;
76631;SDS011;65526;48.578;-4.520;2023-07-20T02:19:29;7.50;;;2.42;;
76631;SDS011;65526;48.578;-4.520;2023-07-20T02:21:56;5.07;;;2.33;;
76631;SDS011;65526;48.578;-4.520;2023-07-20T02:24:23;3.90;;;2.33;;
76631;SDS011;65526;48.578;-4.520;2023-07-20T02:26:49;5.35;;;2.10;;
76631;SDS011;65526;48.578;-4.520;2023-07-20T02:29:15;3.55;;;2.40;;
76631;SDS011;65526;48.578;-4.520;2023-07-20T02:31:42;8.60;;;2.70;;
76631;SDS011;65526;48.578;-4.520;2023-07-20T02:34:09;4.18;;;1.80;;
76631;SDS011;65526;48.578;-4.520;2023-07-20T02:36:35;4.68;;;2.30;;
76631;SDS011;65526;48.578;-4.520;2023-07-20T02:39:02;5.10;;;2.67;;
76631;SDS011;65526;48.578;-4.520;2023-07-20T02:41:32;3.10;;;2.42;;
76631;SDS011;65526;48.578;-4.520;2023-07-20T02:43:59;3.75;;;1.83;;
76631;SDS011;65526;48.578;-4.520;2023-07-20T02:46:27;6.90;;;1.95;;
76631;SDS011;65526;48.578;-4.520;2023-07-20T02:48:55;5.30;;;2.35;;
76631;SDS011;65526;48.578;-4.520;2023-07-20T02:51:22;6.10;;;2.13;;
76631;SDS011;65526;48.578;-4.520;2023-07-20T02:53:48;3.20;;;1.75;;
76631;SDS011;65526;48.578;-4.520;2023-07-20T02:56:15;4.50;;;2.22;;
76631;SDS011;65526;48.578;-4.520;2023-07-20T02:58:41;7.20;;;2.60;;
76631;SDS011;65526;48.578;-4.520;2023-07-20T03:01:11;7.18;;;2.92;;
76631;SDS011;65526;48.578;-4.520;2023-07-20T03:03:38;3.92;;;2.15;;
76631;SDS011;65526;48.578;-4.520;2023-07-20T03:06:05;6.25;;;2.28;;
76631;SDS011;65526;48.578;-4.520;2023-07-20T03:08:32;4.80;;;2.85;;
76631;SDS011;65526;48.578;-4.520;2023-07-20T03:10:59;7.00;;;2.67;;
76631;SDS011;65526;48.578;-4.520;2023-07-20T03:13:28;12.45;;;2.85;;
76631;SDS011;65526;48.578;-4.520;2023-07-20T03:15:55;4.88;;;2.63;;
76631;SDS011;65526;48.578;-4.520;2023-07-20T03:18:22;4.30;;;2.78;;
76631;SDS011;65526;48.578;-4.520;2023-07-20T03:20:49;7.00;;;3.20;;
76631;SDS011;65526;48.578;-4.520;2023-07-20T03:23:15;7.18;;;2.63;;
76631;SDS011;65526;48.578;-4.520;2023-07-20T03:25:42;5.10;;;2.72;;
76631;SDS011;65526;48.578;-4.520;2023-07-20T03:28:09;6.15;;;3.15;;
76631;SDS011;65526;48.578;-4.520;2023-07-20T03:30:35;8.00;;;3.22;;
76631;SDS011;65526;48.578;-4.520;2023-07-20T03:33:02;7.97;;;3.00;;
76631;SDS011;65526;48.578;-4.520;2023-07-20T03:35:30;4.38;;;2.58;;
76631;SDS011;65526;48.578;-4.520;2023-07-20T03:37:57;7.43;;;2.83;;
76631;SDS011;65526;48.578;-4.520;2023-07-20T03:40:23;6.43;;;2.67;;
76631;SDS011;65526;48.578;-4.520;2023-07-20T03:42:51;4.93;;;3.10;;
76631;SDS011;65526;48.578;-4.520;2023-07-20T03:45:17;4.35;;;2.40;;
76631;SDS011;65526;48.578;-4.520;2023-07-20T03:47:44;7.40;;;3.55;;
76631;SDS011;65526;48.578;-4.520;2023-07-20T03:50:10;6.65;;;2.80;;
76631;SDS011;65526;48.578;-4.520;2023-07-20T03:52:37;6.35;;;2.85;;
76631;SDS011;65526;48.578;-4.520;2023-07-20T03:55:03;5.07;;;2.58;;
76631;SDS011;65526;48.578;-4.520;2023-07-20T03:57:30;9.25;;;3.05;;
76631;SDS011;65526;48.578;-4.520;2023-07-20T03:59:58;6.22;;;3.20;;
76631;SDS011;65526;48.578;-4.520;2023-07-20T04:02:25;5.72;;;2.78;;
76631;SDS011;65526;48.578;-4.520;2023-07-20T04:04:51;9.02;;;2.78;;
76631;SDS011;65526;48.578;-4.520;2023-07-20T04:07:17;7.60;;;3.22;;
76631;SDS011;65526;48.578;-4.520;2023-07-20T04:09:44;9.68;;;3.15;;
76631;SDS011;65526;48.578;-4.520;2023-07-20T04:12:10;7.53;;;3.33;;
76631;SDS011;65526;48.578;-4.520;2023-07-20T04:14:37;6.90;;;2.78;;
76631;SDS011;65526;48.578;-4.520;2023-07-20T04:17:03;4.80;;;3.03;;
76631;SDS011;65526;48.578;-4.520;2023-07-20T04:19:30;9.13;;;2.97;;
76631;SDS011;65526;48.578;-4.520;2023-07-20T04:21:57;4.53;;;2.72;;
76631;SDS011;65526;48.578;-4.520;2023-07-20T04:24:24;6.25;;;3.63;;
76631;SDS011;65526;48.578;-4.520;2023-07-20T04:26:50;4.57;;;3.72;;
76631;SDS011;65526;48.578;-4.520;2023-07-20T04:29:16;5.15;;;3.00;;
76631;SDS011;65526;48.578;-4.520;2023-07-20T04:31:43;4.32;;;2.55;;
76631;SDS011;65526;48.578;-4.520;2023-07-20T04:34:11;8.63;;;2.88;;
76631;SDS011;65526;48.578;-4.520;2023-07-20T04:36:38;5.80;;;3.15;;
76631;SDS011;65526;48.578;-4.520;2023-07-20T04:39:05;6.07;;;3.13;;
76631;SDS011;65526;48.578;-4.520;2023-07-20T04:41:37;4.55;;;2.80;;
76631;SDS011;65526;48.578;-4.520;2023-07-20T04:44:04;8.20;;;2.90;;
76631;SDS011;65526;48.578;-4.520;2023-07-20T04:46:30;5.53;;;3.13;;
76631;SDS011;65526;48.578;-4.520;2023-07-20T04:48:58;3.30;;;2.47;;
76631;SDS011;65526;48.578;-4.520;2023-07-20T04:51:27;4.07;;;2.40;;
76631;SDS011;65526;48.578;-4.520;2023-07-20T04:53:56;6.82;;;2.78;;
76631;SDS011;65526;48.578;-4.520;2023-07-20T04:56:24;4.32;;;2.55;;
76631;SDS011;65526;48.578;-4.520;2023-07-20T04:58:52;3.53;;;2.50;;
76631;SDS011;65526;48.578;-4.520;2023-07-20T05:01:18;5.10;;;2.75;;
76631;SDS011;65526;48.578;-4.520;2023-07-20T05:03:44;4.05;;;2.80;;
76631;SDS011;65526;48.578;-4.520;2023-07-20T05:06:11;8.75;;;2.90;;
76631;SDS011;65526;48.578;-4.520;2023-07-20T05:08:38;3.65;;;2.90;;
76631;SDS011;65526;48.578;-4.520;2023-07-20T05:11:04;6.15;;;2.85;;
76631;SDS011;65526;48.578;-4.520;2023-07-20T05:13:31;3.58;;;3.20;;
76631;SDS011;65526;48.578;-4.520;2023-07-20T05:15:57;7.50;;;3.70;;
76631;SDS011;65526;48.578;-4.520;2023-07-20T05:18:24;5.00;;;3.15;;
76631;SDS011;65526;48.578;-4.520;2023-07-20T05:20:51;5.00;;;2.90;;
76631;SDS011;65526;48.578;-4.520;2023-07-20T05:23:18;5.35;;;2.40;;
76631;SDS011;65526;48.578;-4.520;2023-07-20T05:25:57;4.15;;;2.30;;
76631;SDS011;65526;48.578;-4.520;2023-07-20T05:28:25;4.35;;;2.53;;
76631;SDS011;65526;48.578;-4.520;2023-07-20T05:30:53;6.25;;;3.03;;
76631;SDS011;65526;48.578;-4.520;2023-07-20T05:33:20;3.63;;;2.80;;
76631;SDS011;65526;48.578;-4.520;2023-07-20T05:35:47;4.25;;;2.80;;
76631;SDS011;65526;48.578;-4.520;2023-07-20T05:38:14;3.85;;;3.05;;
76631;SDS011;65526;48.578;-4.520;2023-07-20T05:40:40;5.53;;;3.13;;
76631;SDS011;65526;48.578;-4.520;2023-07-20T05:43:08;4.32;;;3.33;;
76631;SDS011;65526;48.578;-4.520;2023-07-20T05:45:35;6.15;;;3.03;;
76631;SDS011;65526;48.578;-4.520;2023-07-20T05:48:01;4.60;;;3.13;;
76631;SDS011;65526;48.578;-4.520;2023-07-20T05:50:28;5.05;;;4.00;;
76631;SDS011;65526;48.578;-4.520;2023-07-20T05:52:54;3.80;;;3.10;;
76631;SDS011;65526;48.578;-4.520;2023-07-20T05:55:21;9.57;;;3.33;;
76631;SDS011;65526;48.578;-4.520;2023-07-20T05:57:47;4.30;;;3.30;;
76631;SDS011;65526;48.578;-4.520;2023-07-20T06:00:15;5.57;;;3.20;;
76631;SDS011;65526;48.578;-4.520;2023-07-20T06:02:44;4.97;;;3.30;;
76631;SDS011;65526;48.578;-4.520;2023-07-20T06:05:12;6.47;;;3.50;;
76631;SDS011;65526;48.578;-4.520;2023-07-20T06:07:38;5.43;;;3.45;;
76631;SDS011;65526;48.578;-4.520;2023-07-20T06:10:05;5.10;;;3.40;;
76631;SDS011;65526;48.578;-4.520;2023-07-20T06:12:32;5.10;;;3.50;;
76631;SDS011;65526;48.578;-4.520;2023-07-20T06:15:02;4.43;;;3.15;;
76631;SDS011;65526;48.578;-4.520;2023-07-20T06:17:29;6.15;;;3.60;;
76631;SDS011;65526;48.578;-4.520;2023-07-20T06:19:56;8.68;;;3.85;;
76631;SDS011;65526;48.578;-4.520;2023-07-20T06:22:22;6.38;;;3.45;;
76631;SDS011;65526;48.578;-4.520;2023-07-20T06:24:49;9.13;;;3.83;;
76631;SDS011;65526;48.578;-4.520;2023-07-20T06:27:15;5.35;;;3.85;;
76631;SDS011;65526;48.578;-4.520;2023-07-20T06:29:41;6.95;;;3.90;;
76631;SDS011;65526;48.578;-4.520;2023-07-20T06:32:08;4.88;;;3.60;;
76631;SDS011;65526;48.578;-4.520;2023-07-20T06:34:34;7.85;;;4.30;;
76631;SDS011;65526;48.578;-4.520;2023-07-20T06:37:04;6.63;;;4.63;;
76631;SDS011;65526;48.578;-4.520;2023-07-20T06:39:30;4.53;;;3.38;;
76631;SDS011;65526;48.578;-4.520;2023-07-20T06:41:57;7.35;;;3.83;;
76631;SDS011;65526;48.578;-4.520;2023-07-20T06:44:23;5.32;;;3.35;;
76631;SDS011;65526;48.578;-4.520;2023-07-20T06:46:49;6.63;;;3.70;;
76631;SDS011;65526;48.578;-4.520;2023-07-20T06:49:25;6.07;;;3.65;;
76631;SDS011;65526;48.578;-4.520;2023-07-20T06:51:53;6.63;;;3.50;;
76631;SDS011;65526;48.578;-4.520;2023-07-20T06:54:19;11.55;;;4.05;;
76631;SDS011;65526;48.578;-4.520;2023-07-20T06:56:46;11.60;;;3.58;;
76631;SDS011;65526;48.578;-4.520;2023-07-20T06:59:12;4.60;;;3.70;;
76631;SDS011;65526;48.578;-4.520;2023-07-20T07:01:39;5.28;;;3.20;;
76631;SDS011;65526;48.578;-4.520;2023-07-20T07:04:05;5.65;;;2.95;;
76631;SDS011;65526;48.578;-4.520;2023-07-20T07:06:32;4.57;;;2.90;;
76631;SDS011;65526;48.578;-4.520;2023-07-20T07:08:58;5.55;;;2.92;;
76631;SDS011;65526;48.578;-4.520;2023-07-20T07:11:25;5.60;;;2.80;;
76631;SDS011;65526;48.578;-4.520;2023-07-20T07:13:51;4.50;;;2.80;;
76631;SDS011;65526;48.578;-4.520;2023-07-20T07:16:18;5.97;;;2.80;;
76631;SDS011;65526;48.578;-4.520;2023-07-20T07:18:47;2.95;;;2.30;;
76631;SDS011;65526;48.578;-4.520;2023-07-20T07:21:16;7.03;;;2.08;;
76631;SDS011;65526;48.578;-4.520;2023-07-20T07:23:42;4.60;;;2.17;;
76631;SDS011;65526;48.578;-4.520;2023-07-20T07:26:09;6.40;;;2.15;;
76631;SDS011;65526;48.578;-4.520;2023-07-20T07:28:36;2.30;;;1.80;;
76631;SDS011;65526;48.578;-4.520;2023-07-20T07:31:06;2.38;;;1.80;;
76631;SDS011;65526;48.578;-4.520;2023-07-20T07:33:32;1.55;;;1.35;;
76631;SDS011;65526;48.578;-4.520;2023-07-20T07:36:00;1.48;;;1.35;;
76631;SDS011;65526;48.578;-4.520;2023-07-20T07:38:26;2.80;;;1.30;;
76631;SDS011;65526;48.578;-4.520;2023-07-20T07:40:53;2.80;;;1.70;;
76631;SDS011;65526;48.578;-4.520;2023-07-20T07:43:20;2.00;;;1.58;;
76631;SDS011;65526;48.578;-4.520;2023-07-20T07:45:46;1.52;;;1.35;;
76631;SDS011;65526;48.578;-4.520;2023-07-20T07:48:12;2.78;;;1.23;;
76631;SDS011;65526;48.578;-4.520;2023-07-20T07:50:40;2.00;;;1.70;;
76631;SDS011;65526;48.578;-4.520;2023-07-20T07:53:07;4.85;;;1.27;;
76631;SDS011;65526;48.578;-4.520;2023-07-20T07:55:34;2.30;;;1.30;;
76631;SDS011;65526;48.578;-4.520;2023-07-20T07:58:01;3.65;;;1.15;;
76631;SDS011;65526;48.578;-4.520;2023-07-20T08:00:28;5.25;;;1.40;;
76631;SDS011;65526;48.578;-4.520;2023-07-20T08:02:54;2.63;;;1.42;;
76631;SDS011;65526;48.578;-4.520;2023-07-20T08:05:20;2.13;;;1.30;;
76631;SDS011;65526;48.578;-4.520;2023-07-20T08:07:47;3.00;;;1.15;;
76631;SDS011;65526;48.578;-4.520;2023-07-20T08:10:13;4.57;;;1.40;;
76631;SDS011;65526;48.578;-4.520;2023-07-20T08:12:39;2.85;;;1.27;;
76631;SDS011;65526;48.578;-4.520;2023-07-20T08:15:06;3.08;;;1.30;;
76631;SDS011;65526;48.578;-4.520;2023-07-20T08:17:33;1.20;;;1.10;;
76631;SDS011;65526;48.578;-4.520;2023-07-20T08:19:59;6.25;;;1.10;;
76631;SDS011;65526;48.578;-4.520;2023-07-20T08:22:26;3.40;;;1.33;;
76631;SDS011;65526;48.578;-4.520;2023-07-20T08:24:52;1.20;;;1.10;;
76631;SDS011;65526;48.578;-4.520;2023-07-20T08:27:19;2.88;;;1.45;;
76631;SDS011;65526;48.578;-4.520;2023-07-20T08:29:45;2.55;;;1.00;;
76631;SDS011;65526;48.578;-4.520;2023-07-20T08:32:11;3.97;;;1.13;;
76631;SDS011;65526;48.578;-4.520;2023-07-20T08:34:41;6.63;;;1.45;;
76631;SDS011;65526;48.578;-4.520;2023-07-20T08:37:08;2.25;;;1.15;;
76631;SDS011;65526;48.578;-4.520;2023-07-20T08:39:36;2.47;;;1.15;;
76631;SDS011;65526;48.578;-4.520;2023-07-20T08:42:02;1.65;;;1.02;;
76631;SDS011;65526;48.578;-4.520;2023-07-20T08:44:31;2.22;;;0.88;;
76631;SDS011;65526;48.578;-4.520;2023-07-20T08:49:29;1.48;;;1.20;;
76631;SDS011;65526;48.578;-4.520;2023-07-20T08:51:58;1.88;;;1.27;;
76631;SDS011;65526;48.578;-4.520;2023-07-20T08:54:29;1.52;;;1.00;;
76631;SDS011;65526;48.578;-4.520;2023-07-20T08:57:01;1.58;;;0.93;;
76631;SDS011;65526;48.578;-4.520;2023-07-20T09:01:59;1.27;;;0.98;;
76631;SDS011;65526;48.578;-4.520;2023-07-20T09:04:26;4.82;;;1.33;;
76631;SDS011;65526;48.578;-4.520;2023-07-20T09:06:52;1.70;;;1.45;;
76631;SDS011;65526;48.578;-4.520;2023-07-20T09:09:19;2.53;;;1.00;;
76631;SDS011;65526;48.578;-4.520;2023-07-20T09:11:49;2.60;;;1.20;;
76631;SDS011;65526;48.578;-4.520;2023-07-20T09:14:16;2.15;;;0.90;;
76631;SDS011;65526;48.578;-4.520;2023-07-20T09:16:49;3.08;;;0.95;;
76631;SDS011;65526;48.578;-4.520;2023-07-20T09:19:18;3.78;;;1.33;;
76631;SDS011;65526;48.578;-4.520;2023-07-20T09:21:48;1.48;;;0.98;;
76631;SDS011;65526;48.578;-4.520;2023-07-20T09:24:17;2.15;;;1.05;;
76631;SDS011;65526;48.578;-4.520;2023-07-20T09:26:44;2.38;;;1.25;;
76631;SDS011;65526;48.578;-4.520;2023-07-20T09:29:14;1.40;;;1.10;;
76631;SDS011;65526;48.578;-4.520;2023-07-20T09:31:44;3.45;;;0.98;;
76631;SDS011;65526;48.578;-4.520;2023-07-20T09:34:34;1.95;;;1.10;;
76631;SDS011;65526;48.578;-4.520;2023-07-20T09:37:01;4.03;;;1.27;;
76631;SDS011;65526;48.578;-4.520;2023-07-20T09:39:27;2.40;;;1.10;;
76631;SDS011;65526;48.578;-4.520;2023-07-20T09:41:55;4.00;;;1.38;;
76631;SDS011;65526;48.578;-4.520;2023-07-20T09:44:29;3.08;;;1.20;;
76631;SDS011;65526;48.578;-4.520;2023-07-20T09:46:55;2.03;;;0.93;;
76631;SDS011;65526;48.578;-4.520;2023-07-20T09:49:22;4.57;;;1.23;;
76631;SDS011;65526;48.578;-4.520;2023-07-20T09:51:48;2.60;;;1.20;;
76631;SDS011;65526;48.578;-4.520;2023-07-20T09:54:16;2.55;;;0.98;;
76631;SDS011;65526;48.578;-4.520;2023-07-20T09:56:43;1.70;;;0.98;;
76631;SDS011;65526;48.578;-4.520;2023-07-20T09:59:11;2.78;;;1.50;;
76631;SDS011;65526;48.578;-4.520;2023-07-20T10:01:58;2.30;;;1.33;;
76631;SDS011;65526;48.578;-4.520;2023-07-20T10:04:43;4.63;;;0.98;;
76631;SDS011;65526;48.578;-4.520;2023-07-20T10:07:10;2.80;;;1.40;;
76631;SDS011;65526;48.578;-4.520;2023-07-20T10:09:40;2.25;;;1.30;;
76631;SDS011;65526;48.578;-4.520;2023-07-20T10:12:08;3.08;;;1.30;;
76631;SDS011;65526;48.578;-4.520;2023-07-20T10:14:38;3.92;;;1.25;;
76631;SDS011;65526;48.578;-4.520;2023-07-20T10:17:07;1.85;;;1.17;;
76631;SDS011;65526;48.578;-4.520;2023-07-20T10:19:42;1.67;;;1.10;;
76631;SDS011;65526;48.578;-4.520;2023-07-20T10:22:12;2.55;;;1.20;;
76631;SDS011;65526;48.578;-4.520;2023-07-20T10:24:44;2.63;;;1.33;;
76631;SDS011;65526;48.578;-4.520;2023-07-20T10:27:12;1.83;;;1.15;;
76631;SDS011;65526;48.578;-4.520;2023-07-20T10:29:42;1.52;;;1.23;;
76631;SDS011;65526;48.578;-4.520;2023-07-20T10:32:09;3.40;;;1.10;;
76631;SDS011;65526;48.578;-4.520;2023-07-20T10:34:36;1.77;;;1.00;;
76631;SDS011;65526;48.578;-4.520;2023-07-20T10:37:03;3.95;;;1.48;;
76631;SDS011;65526;48.578;-4.520;2023-07-20T10:39:33;3.58;;;1.35;;
76631;SDS011;65526;48.578;-4.520;2023-07-20T10:42:00;3.00;;;1.33;;
76631;SDS011;65526;48.578;-4.520;2023-07-20T10:44:29;3.00;;;1.23;;
76631;SDS011;65526;48.578;-4.520;2023-07-20T10:47:00;2.17;;;1.20;;
76631;SDS011;65526;48.578;-4.520;2023-07-20T10:49:28;1.02;;;0.95;;
76631;SDS011;65526;48.578;-4.520;2023-07-20T10:51:58;1.30;;;1.17;;
76631;SDS011;65526;48.578;-4.520;2023-07-20T10:57:16;1.60;;;1.40;;
76631;SDS011;65526;48.578;-4.520;2023-07-20T11:00:18;1.60;;;1.30;;
76631;SDS011;65526;48.578;-4.520;2023-07-20T11:08:04;1.67;;;1.30;;
76631;SDS011;65526;48.578;-4.520;2023-07-20T11:10:35;2.40;;;1.30;;
76631;SDS011;65526;48.578;-4.520;2023-07-20T11:18:27;3.35;;;1.65;;
76631;SDS011;65526;48.578;-4.520;2023-07-20T11:20:54;2.40;;;1.25;;
76631;SDS011;65526;48.578;-4.520;2023-07-20T11:23:20;3.08;;;1.52;;
76631;SDS011;65526;48.578;-4.520;2023-07-20T11:25:47;3.83;;;1.58;;
76631;SDS011;65526;48.578;-4.520;2023-07-20T11:28:15;3.30;;;1.50;;
76631;SDS011;65526;48.578;-4.520;2023-07-20T11:30:42;4.50;;;1.40;;
76631;SDS011;65526;48.578;-4.520;2023-07-20T11:33:08;2.92;;;1.40;;
76631;SDS011;65526;48.578;-4.520;2023-07-20T11:35:36;3.40;;;1.50;;
76631;SDS011;65526;48.578;-4.520;2023-07-20T11:38:08;3.20;;;1.55;;
76631;SDS011;65526;48.578;-4.520;2023-07-20T11:40:35;3.53;;;1.52;;
76631;SDS011;65526;48.578;-4.520;2023-07-20T11:43:01;4.63;;;1.20;;
76631;SDS011;65526;48.578;-4.520;2023-07-20T11:45:28;2.63;;;1.30;;
76631;SDS011;65526;48.578;-4.520;2023-07-20T11:47:58;1.55;;;1.17;;
76631;SDS011;65526;48.578;-4.520;2023-07-20T11:50:26;3.15;;;1.23;;
76631;SDS011;65526;48.578;-4.520;2023-07-20T11:52:52;2.65;;;1.40;;
76631;SDS011;65526;48.578;-4.520;2023-07-20T11:55:19;3.08;;;1.13;;
76631;SDS011;65526;48.578;-4.520;2023-07-20T12:00:47;3.20;;;1.35;;
76631;SDS011;65526;48.578;-4.520;2023-07-20T12:03:14;2.20;;;1.30;;
76631;SDS011;65526;48.578;-4.520;2023-07-20T12:05:40;1.85;;;1.20;;
76631;SDS011;65526;48.578;-4.520;2023-07-20T12:08:07;2.53;;;1.40;;
76631;SDS011;65526;48.578;-4.520;2023-07-20T12:10:33;2.67;;;1.23;;
76631;SDS011;65526;48.578;-4.520;2023-07-20T12:13:03;2.55;;;1.58;;
76631;SDS011;65526;48.578;-4.520;2023-07-20T12:15:29;3.78;;;1.25;;
76631;SDS011;65526;48.578;-4.520;2023-07-20T12:17:58;1.70;;;1.35;;
76631;SDS011;65526;48.578;-4.520;2023-07-20T12:20:27;3.17;;;1.48;;
76631;SDS011;65526;48.578;-4.520;2023-07-20T12:22:59;1.70;;;1.02;;
76631;SDS011;65526;48.578;-4.520;2023-07-20T12:28:00;2.75;;;1.30;;
76631;SDS011;65526;48.578;-4.520;2023-07-20T12:30:28;1.88;;;1.42;;
76631;SDS011;65526;48.578;-4.520;2023-07-20T12:32:55;5.90;;;1.50;;
76631;SDS011;65526;48.578;-4.520;2023-07-20T12:35:21;3.90;;;1.73;;
76631;SDS011;65526;48.578;-4.520;2023-07-20T12:37:47;4.13;;;1.20;;
76631;SDS011;65526;48.578;-4.520;2023-07-20T12:40:14;2.20;;;1.33;;
76631;SDS011;65526;48.578;-4.520;2023-07-20T12:42:41;1.77;;;0.85;;
76631;SDS011;65526;48.578;-4.520;2023-07-20T12:45:08;1.42;;;1.10;;
76631;SDS011;65526;48.578;-4.520;2023-07-20T12:47:34;2.35;;;0.93;;
76631;SDS011;65526;48.578;-4.520;2023-07-20T12:50:01;3.47;;;1.30;;
76631;SDS011;65526;48.578;-4.520;2023-07-20T12:52:32;1.48;;;1.05;;
76631;SDS011;65526;48.578;-4.520;2023-07-20T12:55:02;2.22;;;0.80;;
76631;SDS011;65526;48.578;-4.520;2023-07-20T12:57:29;2.65;;;1.27;;
76631;SDS011;65526;48.578;-4.520;2023-07-20T12:59:55;1.60;;;1.10;;
76631;SDS011;65526;48.578;-4.520;2023-07-20T13:02:21;2.28;;;1.00;;
76631;SDS011;65526;48.578;-4.520;2023-07-20T13:04:48;1.98;;;1.10;;
76631;SDS011;65526;48.578;-4.520;2023-07-20T13:07:14;4.18;;;1.30;;
76631;SDS011;65526;48.578;-4.520;2023-07-20T13:09:40;2.38;;;1.38;;
76631;SDS011;65526;48.578;-4.520;2023-07-20T13:12:07;2.47;;;1.00;;
76631;SDS011;65526;48.578;-4.520;2023-07-20T13:14:34;1.98;;;1.30;;
76631;SDS011;65526;48.578;-4.520;2023-07-20T13:17:00;1.30;;;1.05;;
76631;SDS011;65526;48.578;-4.520;2023-07-20T13:19:27;4.47;;;1.65;;
76631;SDS011;65526;48.578;-4.520;2023-07-20T13:21:53;4.13;;;1.23;;
76631;SDS011;65526;48.578;-4.520;2023-07-20T13:24:20;1.65;;;1.08;;
76631;SDS011;65526;48.578;-4.520;2023-07-20T13:26:46;2.50;;;1.00;;
76631;SDS011;65526;48.578;-4.520;2023-07-20T13:29:12;2.92;;;1.13;;
76631;SDS011;65526;48.578;-4.520;2023-07-20T13:31:39;1.10;;;1.00;;
76631;SDS011;65526;48.578;-4.520;2023-07-20T13:34:05;2.22;;;1.00;;
76631;SDS011;65526;48.578;-4.520;2023-07-20T13:36:31;3.30;;;1.20;;
76631;SDS011;65526;48.578;-4.520;2023-07-20T13:38:58;1.42;;;1.05;;
76631;SDS011;65526;48.578;-4.520;2023-07-20T13:41:24;5.50;;;1.42;;
76631;SDS011;65526;48.578;-4.520;2023-07-20T13:43:50;2.13;;;1.38;;
76631;SDS011;65526;48.578;-4.520;2023-07-20T13:46:17;1.48;;;1.00;;
76631;SDS011;65526;48.578;-4.520;2023-07-20T13:48:43;3.70;;;1.33;;
76631;SDS011;65526;48.578;-4.520;2023-07-20T13:51:10;1.60;;;1.40;;
76631;SDS011;65526;48.578;-4.520;2023-07-20T13:53:36;3.05;;;1.33;;
76631;SDS011;65526;48.578;-4.520;2023-07-20T13:56:02;1.42;;;1.02;;
76631;SDS011;65526;48.578;-4.520;2023-07-20T13:58:30;2.15;;;1.33;;
76631;SDS011;65526;48.578;-4.520;2023-07-20T14:00:56;2.65;;;1.15;;
76631;SDS011;65526;48.578;-4.520;2023-07-20T14:03:22;1.85;;;1.00;;
76631;SDS011;65526;48.578;-4.520;2023-07-20T14:05:49;2.30;;;1.30;;
76631;SDS011;65526;48.578;-4.520;2023-07-20T14:08:16;3.25;;;1.35;;
76631;SDS011;65526;48.578;-4.520;2023-07-20T14:10:42;2.45;;;1.40;;
76631;SDS011;65526;48.578;-4.520;2023-07-20T14:13:09;2.35;;;1.38;;
76631;SDS011;65526;48.578;-4.520;2023-07-20T14:15:35;2.08;;;1.48;;
76631;SDS011;65526;48.578;-4.520;2023-07-20T14:18:02;3.97;;;1.33;;
76631;SDS011;65526;48.578;-4.520;2023-07-20T14:20:28;3.40;;;1.02;;
76631;SDS011;65526;48.578;-4.520;2023-07-20T14:22:55;3.45;;;1.35;;
76631;SDS011;65526;48.578;-4.520;2023-07-20T14:25:21;2.70;;;1.13;;
76631;SDS011;65526;48.578;-4.520;2023-07-20T14:27:47;2.00;;;1.52;;
76631;SDS011;65526;48.578;-4.520;2023-07-20T14:30:14;3.17;;;1.05;;
76631;SDS011;65526;48.578;-4.520;2023-07-20T14:32:40;3.78;;;1.50;;
76631;SDS011;65526;48.578;-4.520;2023-07-20T14:35:07;5.63;;;1.48;;
76631;SDS011;65526;48.578;-4.520;2023-07-20T14:37:34;4.13;;;1.30;;
76631;SDS011;65526;48.578;-4.520;2023-07-20T14:40:01;3.58;;;1.85;;
76631;SDS011;65526;48.578;-4.520;2023-07-20T14:42:30;2.05;;;1.30;;
76631;SDS011;65526;48.578;-4.520;2023-07-20T14:44:58;2.38;;;1.40;;
76631;SDS011;65526;48.578;-4.520;2023-07-20T14:47:24;2.47;;;1.25;;
76631;SDS011;65526;48.578;-4.520;2023-07-20T14:49:50;1.73;;;1.20;;
76631;SDS011;65526;48.578;-4.520;2023-07-20T14:52:17;2.78;;;1.13;;
76631;SDS011;65526;48.578;-4.520;2023-07-20T14:54:43;3.53;;;1.65;;
76631;SDS011;65526;48.578;-4.520;2023-07-20T14:57:10;4.07;;;1.60;;
76631;SDS011;65526;48.578;-4.520;2023-07-20T14:59:39;2.45;;;1.92;;
76631;SDS011;65526;48.578;-4.520;2023-07-20T15:02:09;2.90;;;1.40;;
76631;SDS011;65526;48.578;-4.520;2023-07-20T15:04:36;4.28;;;1.55;;
76631;SDS011;65526;48.578;-4.520;2023-07-20T15:07:03;2.75;;;1.50;;
76631;SDS011;65526;48.578;-4.520;2023-07-20T15:09:30;2.90;;;1.88;;